createdAt,value
2018-12-16T00:00:33.407Z,20.45
2018-12-16T00:03:01.809Z,21.30
2018-12-16T00:05:30.128Z,20.10
2018-12-16T00:07:58.288Z,20.23
2018-12-16T00:10:26.470Z,21.85
2018-12-16T00:20:17.031Z,24.12
2018-12-16T00:22:45.223Z,24.45
2018-12-16T00:25:13.439Z,20.85
2018-12-16T00:27:41.636Z,23.22
2018-12-16T00:30:09.879Z,20.10
2018-12-16T00:32:38.040Z,23.23
2018-12-16T00:35:06.649Z,22.80
2018-12-16T00:40:02.456Z,24.00
2018-12-16T00:42:30.631Z,21.70
2018-12-16T00:44:58.771Z,25.80
2018-12-16T00:52:22.579Z,22.45
2018-12-16T00:54:50.854Z,21.10
2018-12-16T00:57:19.099Z,23.77
2018-12-16T00:59:47.303Z,22.70
2018-12-16T01:04:48.252Z,22.90
2018-12-16T01:07:16.429Z,23.70
2018-12-16T01:09:44.763Z,22.30
2018-12-16T01:12:12.999Z,21.87
2018-12-16T01:14:41.208Z,21.50
2018-12-16T01:17:09.560Z,26.65
2018-12-16T01:19:37.691Z,24.12
2018-12-16T01:22:05.999Z,26.00
2018-12-16T01:27:01.741Z,22.60
2018-12-16T01:29:29.891Z,24.37
2018-12-16T01:31:58.084Z,24.23
2018-12-16T01:34:26.251Z,23.70
2018-12-16T01:36:54.372Z,24.60
2018-12-16T01:39:22.544Z,24.50
2018-12-16T01:41:50.893Z,23.00
2018-12-16T01:44:19.056Z,22.05
2018-12-16T01:46:47.200Z,21.63
2018-12-16T01:49:15.374Z,22.67
2018-12-16T01:51:43.548Z,22.27
2018-12-16T01:54:11.715Z,23.55
2018-12-16T01:59:07.340Z,23.27
2018-12-16T02:04:02.967Z,20.77
2018-12-16T02:06:31.119Z,23.02
2018-12-16T02:08:59.304Z,23.65
2018-12-16T02:13:54.927Z,23.70
2018-12-16T02:16:23.160Z,24.60
2018-12-16T02:18:51.384Z,22.25
2018-12-16T02:21:19.531Z,24.80
2018-12-16T02:23:47.787Z,23.90
2018-12-16T02:26:15.932Z,22.50
2018-12-16T02:28:44.136Z,21.23
2018-12-16T02:31:12.413Z,23.50
2018-12-16T02:33:40.609Z,22.60
2018-12-16T02:36:08.871Z,22.58
2018-12-16T02:38:37.035Z,21.87
2018-12-16T02:41:05.200Z,24.20
2018-12-16T02:46:00.835Z,21.02
2018-12-16T02:48:29.108Z,22.47
2018-12-16T02:50:57.335Z,21.83
2018-12-16T02:53:25.541Z,23.50
2018-12-16T02:55:53.692Z,24.60
2018-12-16T02:58:21.843Z,25.73
2018-12-16T03:00:50.006Z,23.90
2018-12-16T03:03:18.349Z,22.65
2018-12-16T03:05:46.712Z,21.48
2018-12-16T03:08:14.860Z,23.00
2018-12-16T03:10:43.123Z,23.67
2018-12-16T03:13:11.275Z,26.55
2018-12-16T03:15:39.504Z,21.80
2018-12-16T03:18:07.756Z,21.17
2018-12-16T03:20:36.008Z,24.35
2018-12-16T03:23:11.821Z,23.50
2018-12-16T03:25:34.436Z,23.23
2018-12-16T03:28:02.590Z,21.45
2018-12-16T03:30:30.835Z,26.30
2018-12-16T03:32:59.313Z,25.35
2018-12-16T03:35:27.651Z,23.90
2018-12-16T03:37:55.925Z,23.35
2018-12-16T03:40:24.155Z,23.87
2018-12-16T03:42:52.312Z,24.10
2018-12-16T03:45:20.605Z,27.10
2018-12-16T03:47:48.845Z,24.70
2018-12-16T03:50:17.132Z,26.30
2018-12-16T03:52:45.383Z,27.65
2018-12-16T03:55:13.751Z,26.70
2018-12-16T03:57:41.900Z,28.30
2018-12-16T04:05:05.568Z,33.20
2018-12-16T04:07:33.720Z,27.87
2018-12-16T04:10:01.892Z,28.17
2018-12-16T04:12:30.022Z,29.80
2018-12-16T04:14:58.465Z,30.12
2018-12-16T04:19:54.505Z,29.23
2018-12-16T04:24:50.264Z,26.80
2018-12-16T04:27:18.511Z,32.70
2018-12-16T04:29:46.638Z,34.10
2018-12-16T04:32:14.891Z,33.08
2018-12-16T04:34:43.104Z,30.43
2018-12-16T04:37:11.351Z,28.10
2018-12-16T04:39:39.724Z,29.42
2018-12-16T04:42:07.924Z,31.40
2018-12-16T04:47:03.515Z,30.70
2018-12-16T04:49:31.684Z,31.20
2018-12-16T04:51:59.944Z,33.33
2018-12-16T04:54:28.468Z,29.80
2018-12-16T04:59:24.078Z,32.70
2018-12-16T05:09:14.830Z,30.90
2018-12-16T05:11:43.015Z,32.90
2018-12-16T05:14:11.447Z,34.00
2018-12-16T05:16:39.636Z,36.90
2018-12-16T05:19:07.835Z,35.07
2018-12-16T05:21:35.982Z,33.70
2018-12-16T05:24:04.271Z,32.60
2018-12-16T05:26:32.419Z,32.58
2018-12-16T05:29:00.584Z,33.27
2018-12-16T05:31:28.859Z,33.30
2018-12-16T05:33:57.019Z,33.30
2018-12-16T05:36:25.275Z,33.60
2018-12-16T05:38:53.665Z,33.58
2018-12-16T05:41:21.860Z,32.33
2018-12-16T05:43:50.128Z,31.80
2018-12-16T05:46:18.515Z,35.13
2018-12-16T05:53:48.382Z,33.80
2018-12-16T05:56:12.047Z,33.48
2018-12-16T05:58:40.255Z,33.67
2018-12-16T06:01:08.507Z,37.30
2018-12-16T06:03:36.657Z,34.60
2018-12-16T06:06:05.005Z,35.30
2018-12-16T06:08:33.283Z,34.08
2018-12-16T06:11:01.487Z,33.90
2018-12-16T06:13:29.640Z,31.73
2018-12-16T06:15:57.801Z,34.95
2018-12-16T06:18:25.975Z,38.25
2018-12-16T06:20:54.195Z,34.57
2018-12-16T06:23:22.316Z,34.30
2018-12-16T06:25:50.515Z,41.05
2018-12-16T06:28:18.674Z,35.40
2018-12-16T06:30:47.328Z,34.23
2018-12-16T06:33:15.583Z,35.50
2018-12-16T06:35:43.827Z,33.92
2018-12-16T06:38:12.000Z,32.35
2018-12-16T06:40:40.172Z,34.43
2018-12-16T06:43:08.378Z,36.30
2018-12-16T06:45:36.619Z,32.67
2018-12-16T06:48:04.800Z,35.23
2018-12-16T06:50:33.051Z,33.83
2018-12-16T06:53:01.231Z,39.15
2018-12-16T06:55:29.371Z,30.88
2018-12-16T06:57:58.182Z,33.28
2018-12-16T07:00:26.415Z,33.90
2018-12-16T07:02:54.676Z,32.03
2018-12-16T07:05:23.012Z,33.73
2018-12-16T07:07:51.287Z,37.00
2018-12-16T07:10:19.563Z,35.00
2018-12-16T07:12:47.712Z,34.83
2018-12-16T07:15:16.139Z,32.50
2018-12-16T07:20:41.939Z,32.48
2018-12-16T07:23:10.135Z,33.95
2018-12-16T07:25:38.292Z,37.35
2018-12-16T07:28:06.487Z,32.98
2018-12-16T07:30:34.666Z,33.75
2018-12-16T07:33:02.884Z,36.23
2018-12-16T07:35:31.125Z,32.48
2018-12-16T07:37:59.352Z,37.50
2018-12-16T07:40:27.491Z,32.97
2018-12-16T07:42:55.754Z,36.20
2018-12-16T07:45:24.049Z,37.73
2018-12-16T07:47:52.264Z,33.78
2018-12-16T07:50:20.507Z,35.95
2018-12-16T07:52:48.832Z,38.87
2018-12-16T07:55:17.130Z,34.65
2018-12-16T07:57:45.323Z,37.90
2018-12-16T08:00:13.628Z,34.20
2018-12-16T08:02:41.805Z,34.30
2018-12-16T08:05:10.109Z,34.58
2018-12-16T08:07:38.333Z,35.05
2018-12-16T08:10:07.592Z,34.25
2018-12-16T08:12:35.750Z,33.63
2018-12-16T08:15:04.575Z,32.63
2018-12-16T08:17:32.783Z,37.73
2018-12-16T08:20:00.941Z,36.08
2018-12-16T08:22:29.145Z,38.17
2018-12-16T08:24:57.330Z,37.10
2018-12-16T08:27:25.532Z,35.90
2018-12-16T08:29:53.674Z,40.55
2018-12-16T08:32:21.971Z,35.50
2018-12-16T08:34:50.927Z,32.35
2018-12-16T08:37:19.131Z,36.75
2018-12-16T08:42:40.411Z,36.00
2018-12-16T08:45:08.736Z,37.77
2018-12-16T08:47:37.015Z,34.20
2018-12-16T08:50:06.137Z,33.45
2018-12-16T08:52:34.434Z,35.15
2018-12-16T08:55:02.788Z,37.40
2018-12-16T08:57:30.931Z,37.20
2018-12-16T08:59:59.342Z,38.23
2018-12-16T09:02:27.519Z,37.60
2018-12-16T09:04:55.964Z,36.25
2018-12-16T09:07:24.272Z,39.98
2018-12-16T09:09:52.432Z,37.08
2018-12-16T09:12:20.723Z,36.63
2018-12-16T09:14:49.635Z,46.60
2018-12-16T09:17:17.990Z,37.58
2018-12-16T09:19:46.555Z,32.20
2018-12-16T09:22:14.830Z,37.93
2018-12-16T09:24:43.072Z,35.70
2018-12-16T09:27:12.382Z,38.42
2018-12-16T09:29:40.845Z,39.55
2018-12-16T09:32:09.043Z,36.70
2018-12-16T09:34:37.231Z,39.53
2018-12-16T09:37:05.616Z,37.77
2018-12-16T09:39:33.803Z,40.30
2018-12-16T09:42:02.617Z,39.97
2018-12-16T09:44:31.390Z,39.33
2018-12-16T09:46:59.814Z,37.90
2018-12-16T09:49:28.501Z,38.00
2018-12-16T09:51:56.956Z,39.83
2018-12-16T09:54:25.563Z,36.15
2018-12-16T09:56:54.120Z,43.52
2018-12-16T09:59:23.112Z,35.25
2018-12-16T10:01:51.824Z,39.08
2018-12-16T10:04:20.314Z,36.08
2018-12-16T10:06:49.461Z,36.20
2018-12-16T10:09:19.411Z,35.55
2018-12-16T10:11:48.671Z,37.88
2018-12-16T10:14:17.078Z,37.20
2018-12-16T10:16:45.800Z,39.55
2018-12-16T10:19:14.379Z,33.23
2018-12-16T10:21:43.057Z,35.23
2018-12-16T10:24:11.746Z,40.90
2018-12-16T10:26:40.799Z,37.65
2018-12-16T10:29:09.078Z,37.00
2018-12-16T10:31:37.240Z,39.27
2018-12-16T10:34:05.583Z,38.57
2018-12-16T10:36:33.822Z,37.95
2018-12-16T10:39:02.068Z,37.00
2018-12-16T10:41:30.258Z,35.38
2018-12-16T10:43:58.419Z,40.00
2018-12-16T10:46:26.628Z,35.13
2018-12-16T10:48:55.189Z,37.10
2018-12-16T10:51:24.639Z,37.45
2018-12-16T10:53:52.775Z,39.23
2018-12-16T10:56:21.031Z,40.10
2018-12-16T10:58:49.481Z,40.10
2018-12-16T11:01:23.075Z,44.27
2018-12-16T11:03:51.233Z,40.93
2018-12-16T11:06:19.384Z,40.77
2018-12-16T11:08:48.131Z,39.53
2018-12-16T11:11:16.459Z,38.48
2018-12-16T11:13:44.647Z,41.75
2018-12-16T11:16:12.828Z,38.15
2018-12-16T11:18:40.973Z,40.45
2018-12-16T11:21:09.365Z,40.40
2018-12-16T11:23:37.543Z,39.27
2018-12-16T11:26:06.497Z,39.23
2018-12-16T11:28:34.711Z,38.70
2018-12-16T11:31:03.116Z,35.50
2018-12-16T11:33:31.403Z,38.13
2018-12-16T11:35:59.771Z,36.58
2018-12-16T11:38:28.222Z,35.35
2018-12-16T11:40:56.435Z,34.58
2018-12-16T11:43:24.632Z,41.13
2018-12-16T11:45:52.804Z,37.65
2018-12-16T11:48:21.040Z,37.30
2018-12-16T11:50:49.207Z,38.77
2018-12-16T11:53:17.396Z,42.25
2018-12-16T11:55:45.871Z,34.30
2018-12-16T11:58:14.097Z,36.05
2018-12-16T12:00:42.284Z,35.45
2018-12-16T12:03:10.455Z,38.38
2018-12-16T12:05:38.618Z,35.40
2018-12-16T12:08:06.807Z,36.40
2018-12-16T12:10:35.267Z,36.73
2018-12-16T12:13:03.572Z,36.43
2018-12-16T12:15:31.699Z,36.20
2018-12-16T12:18:00.008Z,37.65
2018-12-16T12:20:28.580Z,35.60
2018-12-16T12:22:57.636Z,34.95
2018-12-16T12:25:25.786Z,35.65
2018-12-16T12:27:53.982Z,35.10
2018-12-16T12:30:22.255Z,37.13
2018-12-16T12:32:50.412Z,36.40
2018-12-16T12:35:18.715Z,36.35
2018-12-16T12:37:47.016Z,39.40
2018-12-16T12:40:15.135Z,33.67
2018-12-16T12:42:43.347Z,37.60
2018-12-16T12:45:11.539Z,36.05
2018-12-16T12:47:39.731Z,34.90
2018-12-16T12:50:08.609Z,33.18
2018-12-16T12:52:36.783Z,34.03
2018-12-16T12:55:05.262Z,39.50
2018-12-16T12:57:33.831Z,37.05
2018-12-16T13:00:02.271Z,38.33
2018-12-16T13:02:30.504Z,31.68
2018-12-16T13:04:58.705Z,34.88
2018-12-16T13:07:27.412Z,34.40
2018-12-16T13:09:55.587Z,34.75
2018-12-16T13:12:23.828Z,33.25
2018-12-16T13:14:52.160Z,35.70
2018-12-16T13:17:20.480Z,34.18
2018-12-16T13:19:49.491Z,34.95
2018-12-16T13:22:17.690Z,33.08
2018-12-16T13:24:57.169Z,34.18
2018-12-16T13:27:25.497Z,33.60
2018-12-16T13:29:53.681Z,39.48
2018-12-16T13:32:22.104Z,34.40
2018-12-16T13:34:50.351Z,36.60
2018-12-16T13:37:19.399Z,37.80
2018-12-16T13:39:48.340Z,33.13
2018-12-16T13:42:16.539Z,34.05
2018-12-16T13:44:44.684Z,36.83
2018-12-16T13:47:12.862Z,34.95
2018-12-16T13:49:41.127Z,40.03
2018-12-16T13:52:09.283Z,32.93
2018-12-16T13:54:37.441Z,36.13
2018-12-16T13:57:05.687Z,31.40
2018-12-16T13:59:33.932Z,34.63
2018-12-16T14:02:02.125Z,35.33
2018-12-16T14:04:30.268Z,32.77
2018-12-16T14:06:58.451Z,36.10
2018-12-16T14:09:26.719Z,35.68
2018-12-16T14:11:54.891Z,36.90
2018-12-16T14:14:23.071Z,33.58
2018-12-16T14:16:51.199Z,35.17
2018-12-16T14:19:19.475Z,38.10
2018-12-16T14:21:47.685Z,35.43
2018-12-16T14:24:16.101Z,39.67
2018-12-16T14:26:44.307Z,33.73
2018-12-16T14:29:12.475Z,37.03
2018-12-16T14:31:40.733Z,35.40
2018-12-16T14:34:08.960Z,38.75
2018-12-16T14:36:37.191Z,39.05
2018-12-16T14:39:07.435Z,36.58
2018-12-16T14:41:35.945Z,35.05
2018-12-16T14:44:04.215Z,35.63
2018-12-16T14:46:32.397Z,33.95
2018-12-16T14:49:00.595Z,35.30
2018-12-16T14:51:28.729Z,35.75
2018-12-16T14:53:56.992Z,38.35
2018-12-16T14:56:25.324Z,39.75
2018-12-16T14:58:53.677Z,43.87
2018-12-16T15:01:21.908Z,48.43
2018-12-16T15:03:50.141Z,44.27
2018-12-16T15:06:18.287Z,35.73
2018-12-16T15:08:46.402Z,41.53
2018-12-16T15:11:14.682Z,45.12
2018-12-16T15:13:42.868Z,38.55
2018-12-16T15:16:11.147Z,41.53
2018-12-16T15:18:39.335Z,43.00
2018-12-16T15:21:07.467Z,53.90
2018-12-16T15:23:35.619Z,53.85
2018-12-16T15:26:04.244Z,48.78
2018-12-16T15:28:32.523Z,43.00
2018-12-16T15:31:00.697Z,44.75
2018-12-16T15:33:28.885Z,52.40
2018-12-16T15:35:57.151Z,43.90
2018-12-16T15:38:25.384Z,43.48
2018-12-16T15:40:53.576Z,47.05
2018-12-16T15:43:21.731Z,42.85
2018-12-16T15:45:49.874Z,45.48
2018-12-16T15:48:18.107Z,50.90
2018-12-16T15:50:47.821Z,45.13
2018-12-16T15:53:16.547Z,50.67
2018-12-16T15:55:44.811Z,43.45
2018-12-16T15:58:12.971Z,46.10
2018-12-16T16:00:41.143Z,44.50
2018-12-16T16:03:09.284Z,47.58
2018-12-16T16:05:38.482Z,51.47
2018-12-16T16:08:06.724Z,50.25
2018-12-16T16:10:34.989Z,48.10
2018-12-16T16:13:03.255Z,46.92
2018-12-16T16:15:31.463Z,49.08
2018-12-16T16:17:59.646Z,48.78
2018-12-16T16:20:27.919Z,53.73
2018-12-16T16:22:56.140Z,51.40
2018-12-16T16:25:24.348Z,52.63
2018-12-16T16:27:52.553Z,52.08
2018-12-16T16:30:21.147Z,52.75
2018-12-16T16:32:49.315Z,54.55
2018-12-16T16:35:17.603Z,60.80
2018-12-16T16:37:45.771Z,53.28
2018-12-16T16:40:14.407Z,59.20
2018-12-16T16:42:42.587Z,57.43
2018-12-16T16:45:10.728Z,55.40
2018-12-16T16:47:38.991Z,58.78
2018-12-16T16:50:07.295Z,52.60
2018-12-16T16:52:35.403Z,62.50
2018-12-16T16:55:03.844Z,59.08
2018-12-16T16:57:32.031Z,56.73
2018-12-16T17:00:00.506Z,56.20
2018-12-16T17:02:28.703Z,63.20
2018-12-16T17:04:56.927Z,60.98
2018-12-16T17:07:25.071Z,68.52
2018-12-16T17:09:53.297Z,63.58
2018-12-16T17:12:21.450Z,61.55
2018-12-16T17:14:50.066Z,58.83
2018-12-16T17:17:18.188Z,55.23
2018-12-16T17:19:46.331Z,61.80
2018-12-16T17:22:14.581Z,58.25
2018-12-16T17:27:35.863Z,57.85
2018-12-16T17:30:06.175Z,59.55
2018-12-16T17:32:34.511Z,61.15
2018-12-16T17:35:02.779Z,64.53
2018-12-16T17:37:30.951Z,63.17
2018-12-16T17:39:59.151Z,56.75
2018-12-16T17:42:27.293Z,57.73
2018-12-16T17:44:55.547Z,55.73
2018-12-16T17:47:23.730Z,50.73
2018-12-16T17:49:52.135Z,57.03
2018-12-16T17:52:20.399Z,59.40
2018-12-16T17:54:48.584Z,61.08
2018-12-16T17:57:16.735Z,55.67
2018-12-16T17:59:44.902Z,61.25
2018-12-16T18:02:13.066Z,61.70
2018-12-16T18:04:42.085Z,64.60
2018-12-16T18:07:10.315Z,62.73
2018-12-16T18:09:38.622Z,65.35
2018-12-16T18:12:06.783Z,58.60
2018-12-16T18:14:35.050Z,60.50
2018-12-16T18:17:04.187Z,60.73
2018-12-16T18:19:32.359Z,56.48
2018-12-16T18:22:01.402Z,59.77
2018-12-16T18:24:29.987Z,59.90
2018-12-16T18:26:58.173Z,62.03
2018-12-16T18:29:26.279Z,67.25
2018-12-16T18:31:54.732Z,62.93
2018-12-16T18:34:22.991Z,59.63
2018-12-16T18:36:51.378Z,73.42
2018-12-16T18:39:19.632Z,63.30
2018-12-16T18:41:48.311Z,67.12
2018-12-16T18:44:16.483Z,61.70
2018-12-16T18:46:44.720Z,67.47
2018-12-16T18:49:12.992Z,60.00
2018-12-16T18:51:41.408Z,66.42
2018-12-16T18:54:09.519Z,61.48
2018-12-16T18:56:37.669Z,72.45
2018-12-16T18:59:05.806Z,73.70
2018-12-16T19:01:35.151Z,67.75
2018-12-16T19:04:03.375Z,68.52
2018-12-16T19:06:31.639Z,65.95
2018-12-16T19:08:59.847Z,71.45
2018-12-16T19:11:28.855Z,78.33
2018-12-16T19:13:57.021Z,75.45
2018-12-16T19:16:25.159Z,80.47
2018-12-16T19:18:53.920Z,76.28
2018-12-16T19:21:22.143Z,73.50
2018-12-16T19:23:50.272Z,70.30
2018-12-16T19:26:18.448Z,78.35
2018-12-16T19:28:46.713Z,61.55
2018-12-16T19:31:14.915Z,72.92
2018-12-16T19:33:43.042Z,75.32
2018-12-16T19:36:11.251Z,70.17
2018-12-16T19:38:39.563Z,70.50
2018-12-16T19:41:07.730Z,82.25
2018-12-16T19:43:35.850Z,78.30
2018-12-16T19:46:04.275Z,82.00
2018-12-16T19:48:32.425Z,80.55
2018-12-16T19:51:00.636Z,74.37
2018-12-16T19:53:30.751Z,80.90
2018-12-16T19:55:59.260Z,75.03
2018-12-16T19:58:28.008Z,76.85
2018-12-16T20:00:56.171Z,83.00
2018-12-16T20:03:24.348Z,104.58
2018-12-16T20:05:58.010Z,90.10
2018-12-16T20:08:26.152Z,91.97
2018-12-16T20:10:54.267Z,85.38
2018-12-16T20:13:22.416Z,81.42
2018-12-16T20:15:52.627Z,84.45
2018-12-16T20:18:20.868Z,78.50
2018-12-16T20:20:49.048Z,79.45
2018-12-16T20:23:17.279Z,83.35
2018-12-16T20:25:45.427Z,71.25
2018-12-16T20:28:15.499Z,90.05
2018-12-16T20:30:43.671Z,94.87
2018-12-16T20:33:11.864Z,88.97
2018-12-16T20:35:40.059Z,83.10
2018-12-16T20:38:08.479Z,84.10
2018-12-16T20:40:36.927Z,92.75
2018-12-16T20:43:05.172Z,86.40
2018-12-16T20:45:33.291Z,90.57
2018-12-16T20:48:01.439Z,97.35
2018-12-16T20:50:29.587Z,89.70
2018-12-16T20:52:57.963Z,101.33
2018-12-16T20:55:26.147Z,93.47
2018-12-16T20:57:54.383Z,111.50
2018-12-16T21:00:22.535Z,110.63
2018-12-16T21:02:51.780Z,105.78
2018-12-16T21:05:19.907Z,90.07
2018-12-16T21:07:48.056Z,87.97
2018-12-16T21:10:16.203Z,85.85
2018-12-16T21:12:49.755Z,92.42
2018-12-16T21:15:23.363Z,83.85
2018-12-16T21:17:56.959Z,77.15
2018-12-16T21:20:25.291Z,85.30
2018-12-16T21:22:53.593Z,90.83
2018-12-16T21:25:21.779Z,85.77
2018-12-16T21:27:50.045Z,90.60
2018-12-16T21:30:18.224Z,99.62
2018-12-16T21:32:46.460Z,85.23
2018-12-16T21:35:14.769Z,87.92
2018-12-16T21:37:42.951Z,78.83
2018-12-16T21:40:11.160Z,83.72
2018-12-16T21:42:39.303Z,79.17
2018-12-16T21:45:07.661Z,80.40
2018-12-16T21:47:35.827Z,85.45
2018-12-16T21:50:04.356Z,78.85
2018-12-16T21:52:32.543Z,80.47
2018-12-16T21:55:00.715Z,95.38
2018-12-16T21:57:32.982Z,85.55
2018-12-16T21:59:59.251Z,84.42
2018-12-16T22:02:27.557Z,85.97
2018-12-16T22:04:55.772Z,89.97
2018-12-16T22:07:23.931Z,74.97
2018-12-16T22:09:52.059Z,81.47
2018-12-16T22:12:20.207Z,80.55
2018-12-16T22:14:48.403Z,68.97
2018-12-16T22:17:16.620Z,73.65
2018-12-16T22:19:44.763Z,69.55
2018-12-16T22:22:12.907Z,71.47
2018-12-16T22:24:41.075Z,70.07
2018-12-16T22:27:09.275Z,73.00
2018-12-16T22:29:37.741Z,77.03
2018-12-16T22:32:05.943Z,79.12
2018-12-16T22:34:34.107Z,80.22
2018-12-16T22:37:02.260Z,73.87
2018-12-16T22:39:30.399Z,80.72
2018-12-16T22:41:58.660Z,71.50
2018-12-16T22:44:26.855Z,67.87
2018-12-16T22:46:55.235Z,72.40
2018-12-16T22:49:23.417Z,69.32
2018-12-16T22:51:51.635Z,80.07
2018-12-16T22:54:19.795Z,75.83
2018-12-16T22:56:47.955Z,82.65
2018-12-16T22:59:16.111Z,79.27
2018-12-16T23:01:44.331Z,83.30
2018-12-16T23:04:12.490Z,86.28
2018-12-16T23:06:40.735Z,84.30
2018-12-16T23:09:08.891Z,99.07
2018-12-16T23:11:37.367Z,89.25
2018-12-16T23:14:05.559Z,95.65
2018-12-16T23:16:33.731Z,86.80
2018-12-16T23:19:02.014Z,95.12
2018-12-16T23:21:30.239Z,77.60
2018-12-16T23:23:58.371Z,84.25
2018-12-16T23:26:26.543Z,73.30
2018-12-16T23:28:54.681Z,74.47
2018-12-16T23:31:22.941Z,78.00
2018-12-16T23:33:51.082Z,78.78
2018-12-16T23:36:19.207Z,77.08
2018-12-16T23:38:47.379Z,78.33
2018-12-16T23:41:15.539Z,87.60
2018-12-16T23:43:43.740Z,84.83
2018-12-16T23:46:11.901Z,77.87
2018-12-16T23:48:40.245Z,85.80
2018-12-16T23:51:08.433Z,81.22
2018-12-16T23:53:36.615Z,78.70
2018-12-16T23:56:04.990Z,72.05
2018-12-16T23:58:33.159Z,76.97
